Time;durP1;ratioP1;P1;durP2;ratioP2;P2;SDS_P1;SDS_P2;PMS_P1;PMS_P2;Temp;Humidity;BMP_temperature;BMP_pressure;BME280_temperature;BME280_humidity;BME280_pressure;Samples;Min_cycle;Max_cycle;Signal;HPM_P1;HPM_P2
2022/12/29 00:01:13;;;;;;;3.22;2.00;;;;;;;10.66;100.00;100110.44;5067307;28;20461;-53
2022/12/29 00:03:39;;;;;;;2.83;1.80;;;;;;;10.64;100.00;100101.84;5065783;28;20185;-54
2022/12/29 00:06:04;;;;;;;2.17;1.80;;;;;;;10.64;100.00;100088.13;5068377;28;20536;-49
2022/12/29 00:08:39;;;;;;;2.03;1.63;;;;;;;10.65;100.00;100101.00;5066504;28;20120;-53
2022/12/29 00:11:15;;;;;;;2.47;1.30;;;;;;;10.65;100.00;100087.28;5066384;28;20033;-45
2022/12/29 00:16:26;;;;;;;1.52;1.27;;;;;;;10.65;100.00;100083.00;5080367;28;20089;-53
2022/12/29 00:18:51;;;;;;;3.72;1.30;;;;;;;10.67;100.00;100080.47;5067738;28;20028;-52
2022/12/29 00:35:26;;;;;;;2.30;0.80;;;;;;;10.55;100.00;100070.00;5069855;28;20080;-53
2022/12/29 00:46:04;;;;;;;1.73;0.70;;;;;;;10.43;100.00;100044.97;5070896;28;20051;-48
2022/12/29 00:51:13;;;;;;;3.03;0.77;;;;;;;10.43;100.00;100034.69;5068800;28;20047;-50
2022/12/29 00:53:39;;;;;;;2.65;0.70;;;;;;;10.40;100.00;100025.22;5066826;28;20025;-51
2022/12/29 00:56:04;;;;;;;1.60;0.60;;;;;;;10.38;100.00;100021.78;5067975;28;20411;-47
2022/12/29 00:58:30;;;;;;;1.05;0.70;;;;;;;10.36;100.00;100023.44;5076191;28;20036;-53
2022/12/29 01:01:03;;;;;;;2.13;0.70;;;;;;;10.40;100.00;100034.66;5082442;28;20036;-52
2022/12/29 01:03:29;;;;;;;1.10;0.82;;;;;;;10.37;100.00;100032.88;5072024;28;20581;-52
2022/12/29 01:05:54;;;;;;;2.45;0.80;;;;;;;10.37;100.00;100020.03;5074244;28;20041;-52
2022/12/29 01:08:20;;;;;;;2.42;1.10;;;;;;;10.35;100.00;100016.59;5063120;28;20021;-53
2022/12/29 01:10:45;;;;;;;2.20;1.10;;;;;;;10.35;100.00;100011.44;5064166;28;20066;-52
2022/12/29 01:13:10;;;;;;;2.25;1.20;;;;;;;10.37;100.00;100014.03;5069737;28;20037;-53
2022/12/29 01:15:36;;;;;;;1.80;1.10;;;;;;;10.36;100.00;100002.03;5063912;28;20024;-52
2022/12/29 01:18:01;;;;;;;2.95;1.30;;;;;;;10.36;100.00;100005.44;5063251;28;20119;-53
2022/12/29 01:20:28;;;;;;;2.97;1.40;;;;;;;10.36;100.00;100005.44;5062297;28;20166;-52
2022/12/29 01:22:54;;;;;;;3.30;1.20;;;;;;;10.37;100.00;100003.75;5066912;28;20504;-52
2022/12/29 01:25:19;;;;;;;2.70;1.40;;;;;;;10.39;100.00;100007.22;5066434;28;20056;-53
2022/12/29 01:27:45;;;;;;;2.03;1.30;;;;;;;10.39;100.00;100018.38;5072014;28;20032;-50
2022/12/29 01:30:10;;;;;;;2.17;1.40;;;;;;;10.40;100.00;100003.81;5066895;28;20036;-49
2022/12/29 01:32:36;;;;;;;5.13;1.17;;;;;;;10.42;100.00;99994.41;5058208;28;20082;-53
2022/12/29 01:35:01;;;;;;;1.90;1.40;;;;;;;10.43;100.00;99991.88;5070198;28;20052;-53
2022/12/29 01:37:26;;;;;;;2.10;1.17;;;;;;;10.44;100.00;99997.88;5074064;28;20035;-53
2022/12/29 01:39:52;;;;;;;1.35;1.10;;;;;;;10.46;100.00;99988.47;5069095;28;20020;-46
2022/12/29 01:42:22;;;;;;;2.47;1.17;;;;;;;10.45;100.00;99987.63;5070774;28;20040;-53
2022/12/29 01:45:00;;;;;;;2.90;0.98;;;;;;;10.48;100.00;99985.06;5072743;28;20119;-51
2022/12/29 01:47:53;;;;;;;2.50;0.80;;;;;;;10.51;100.00;99983.41;5072298;28;20508;-52
2022/12/29 01:50:30;;;;;;;1.83;1.00;;;;;;;10.52;100.00;99985.13;5068804;28;20086;-53
2022/12/29 01:53:10;;;;;;;3.65;0.93;;;;;;;10.52;100.00;99988.56;5077893;28;20685;-52
2022/12/29 01:55:49;;;;;;;2.05;1.00;;;;;;;10.52;100.00;99988.56;5069409;28;20037;-52
2022/12/29 01:58:17;;;;;;;2.08;0.73;;;;;;;10.55;100.00;99987.72;5079306;28;20119;-53
2022/12/29 02:00:43;;;;;;;2.97;0.80;;;;;;;10.55;100.00;99992.88;5076190;28;20029;-52
2022/12/29 02:03:10;;;;;;;2.83;0.82;;;;;;;10.59;100.00;99982.66;5068358;28;20449;-53
2022/12/29 02:05:47;;;;;;;2.65;0.90;;;;;;;10.58;100.00;99988.66;5065600;28;20540;-53
2022/12/29 02:08:13;;;;;;;2.28;0.80;;;;;;;10.59;100.00;99989.50;5060936;28;20025;-52
2022/12/29 02:10:40;;;;;;;1.48;0.60;;;;;;;10.61;99.93;99998.09;5069091;28;20086;-52
2022/12/29 02:13:06;;;;;;;2.70;0.60;;;;;;;10.61;99.70;99987.81;5065002;28;20531;-53
2022/12/29 02:15:43;;;;;;;2.65;1.00;;;;;;;10.64;99.33;99999.03;5071816;28;20028;-50
2022/12/29 02:18:15;;;;;;;1.60;0.95;;;;;;;10.64;99.56;99996.44;5065297;28;20028;-52
2022/12/29 02:21:08;;;;;;;2.42;0.80;;;;;;;10.65;99.69;99999.88;5065853;28;20532;-51
2022/12/29 02:23:33;;;;;;;2.10;0.80;;;;;;;10.64;99.19;99998.16;5066632;28;20466;-52
2022/12/29 02:26:27;;;;;;;2.65;0.60;;;;;;;10.68;98.47;99990.50;5072402;28;20062;-52
2022/12/29 02:29:24;;;;;;;2.65;0.68;;;;;;;10.70;98.43;99982.81;5063635;28;20520;-52
2022/12/29 02:32:14;;;;;;;2.88;0.90;;;;;;;10.71;97.53;99993.13;5065559;28;20031;-51
2022/12/29 02:35:05;;;;;;;1.58;0.70;;;;;;;10.74;97.37;99994.88;5065261;28;20039;-50
2022/12/29 02:37:45;;;;;;;4.00;0.60;;;;;;;10.76;96.98;99988.03;5065598;28;20542;-53
2022/12/29 02:40:24;;;;;;;3.85;0.70;;;;;;;10.77;96.47;99983.75;5069423;28;20023;-51
2022/12/29 02:43:04;;;;;;;;;;;;;;;10.83;97.43;99992.41;5066040;28;20025;-53
2022/12/29 02:45:52;;;;;;;4.20;0.90;;;;;;;10.80;96.83;99979.53;5069324;28;20126;-51
2022/12/29 02:48:27;;;;;;;3.22;0.65;;;;;;;10.79;97.14;99982.91;5066416;28;20009;-52
2022/12/29 02:51:02;;;;;;;3.72;0.65;;;;;;;10.80;97.20;99987.25;5069633;28;20040;-48
2022/12/29 02:56:14;;;;;;;2.40;0.43;;;;;;;10.79;97.05;99976.91;5069910;28;20055;-53
2022/12/29 02:58:39;;;;;;;1.90;0.60;;;;;;;10.79;97.25;99985.50;5067778;28;20032;-52
2022/12/29 03:01:26;;;;;;;3.20;0.73;;;;;;;10.78;96.92;99970.06;5072954;28;20047;-51
2022/12/29 03:04:17;;;;;;;3.17;0.75;;;;;;;10.78;97.34;99963.19;5064065;28;20024;-53
2022/12/29 03:06:53;;;;;;;2.38;0.80;;;;;;;10.79;97.13;99970.06;5070817;28;20051;-50
2022/12/29 03:09:41;;;;;;;3.08;0.70;;;;;;;10.79;97.37;99967.50;5069970;28;20020;-53
2022/12/29 03:12:10;;;;;;;1.67;0.60;;;;;;;10.76;97.45;99967.47;5066572;28;20557;-52
2022/12/29 03:17:25;;;;;;;3.53;0.90;;;;;;;10.77;97.00;99968.31;5066563;28;20087;-53
2022/12/29 03:19:55;;;;;;;1.77;0.70;;;;;;;10.75;97.05;99976.03;5066286;28;20024;-52
2022/12/29 03:22:27;;;;;;;2.80;0.70;;;;;;;10.74;97.09;99972.59;5063938;28;20028;-49
2022/12/29 03:25:01;;;;;;;2.05;0.70;;;;;;;10.75;97.12;99970.88;5060530;28;20155;-51
2022/12/29 03:27:36;;;;;;;3.05;0.60;;;;;;;10.77;96.55;99968.31;5065140;28;20465;-50
2022/12/29 03:30:05;;;;;;;2.33;0.80;;;;;;;10.74;96.92;99975.16;5059349;28;20114;-49
2022/12/29 03:32:35;;;;;;;1.52;0.60;;;;;;;10.74;96.69;99966.59;5063358;28;20495;-52
2022/12/29 03:35:03;;;;;;;2.10;0.50;;;;;;;10.74;96.27;99954.59;5069282;28;20031;-52
2022/12/29 03:37:35;;;;;;;1.98;0.50;;;;;;;10.74;96.78;99959.75;5066285;28;20496;-52
2022/12/29 03:40:01;;;;;;;2.20;0.70;;;;;;;10.73;96.57;99958.00;5065069;28;20060;-51
2022/12/29 03:42:30;;;;;;;4.13;0.80;;;;;;;10.74;95.96;99969.16;5063770;28;20119;-52
2022/12/29 03:44:56;;;;;;;2.55;0.73;;;;;;;10.72;96.25;99961.41;5058064;28;20036;-51
2022/12/29 03:47:23;;;;;;;2.92;0.70;;;;;;;10.72;96.03;99963.97;5065363;28;20054;-49
2022/12/29 03:49:50;;;;;;;6.35;0.80;;;;;;;10.71;95.67;99967.41;5070448;28;20031;-53
2022/12/29 03:52:15;;;;;;;2.17;0.60;;;;;;;10.72;95.64;99963.97;5072691;28;20032;-51
2022/12/29 03:54:41;;;;;;;2.33;0.68;;;;;;;10.71;95.55;99948.53;5075961;28;20576;-47
2022/12/29 03:57:06;;;;;;;5.10;0.90;;;;;;;10.72;95.63;99969.13;5062495;28;20037;-52
2022/12/29 03:59:32;;;;;;;1.58;0.68;;;;;;;10.70;95.56;99978.53;5072497;28;20442;-52
2022/12/29 04:01:57;;;;;;;3.35;0.80;;;;;;;10.70;95.48;99967.38;5067483;28;20127;-53
2022/12/29 04:04:23;;;;;;;2.63;0.77;;;;;;;10.68;96.30;99974.22;5053767;28;20112;-53
2022/12/29 04:06:48;;;;;;;3.00;0.70;;;;;;;10.70;96.37;99975.09;5062017;28;20098;-52
2022/12/29 04:09:13;;;;;;;4.65;0.77;;;;;;;10.68;96.30;99977.66;5061326;28;20063;-52
2022/12/29 04:11:39;;;;;;;4.70;0.85;;;;;;;10.65;96.51;99985.31;5068138;28;20035;-53
2022/12/29 04:14:04;;;;;;;5.68;0.70;;;;;;;10.64;96.40;99978.44;5057928;28;20499;-46
2022/12/29 04:16:29;;;;;;;2.67;0.60;;;;;;;10.64;96.46;99975.88;5061862;28;20078;-53
2022/12/29 04:18:55;;;;;;;2.55;0.63;;;;;;;10.62;96.67;99976.72;5064798;28;20090;-53
2022/12/29 04:21:20;;;;;;;4.25;0.90;;;;;;;10.61;96.71;99978.41;5062731;28;20037;-52
2022/12/29 04:23:46;;;;;;;3.80;0.80;;;;;;;10.61;96.50;99980.97;5065790;28;20184;-51
2022/12/29 04:26:11;;;;;;;3.45;0.80;;;;;;;10.58;95.59;99988.66;5063998;28;20051;-51
2022/12/29 04:28:36;;;;;;;4.55;0.50;;;;;;;10.58;96.13;99990.34;5063507;28;20036;-51
2022/12/29 04:31:03;;;;;;;4.20;0.80;;;;;;;10.57;96.07;99988.63;5062402;28;20035;-53
2022/12/29 04:33:29;;;;;;;4.72;0.77;;;;;;;10.54;95.97;99992.00;5066184;28;20036;-52
2022/12/29 04:35:54;;;;;;;4.68;0.75;;;;;;;10.53;94.69;99986.84;5074220;28;20381;-53
2022/12/29 04:38:22;;;;;;;7.18;0.85;;;;;;;10.48;95.10;99989.34;5061980;28;20115;-53
2022/12/29 04:40:47;;;;;;;5.45;0.93;;;;;;;10.47;94.64;99990.19;5063821;28;20056;-53
2022/12/29 04:43:13;;;;;;;5.00;1.20;;;;;;;10.46;94.42;99998.75;5068016;28;20059;-50
2022/12/29 04:45:42;;;;;;;4.88;0.77;;;;;;;10.45;94.33;99985.03;5064997;28;20028;-50
2022/12/29 04:48:08;;;;;;;5.97;1.00;;;;;;;10.43;94.23;99986.75;5064668;28;20036;-52
2022/12/29 04:50:34;;;;;;;4.93;0.70;;;;;;;10.43;93.83;99984.16;5075162;28;20032;-53
2022/12/29 04:52:59;;;;;;;5.00;0.85;;;;;;;10.43;93.48;100014.13;5068068;28;20082;-51
2022/12/29 04:55:24;;;;;;;6.05;0.90;;;;;;;10.41;93.08;100018.38;5069421;28;20032;-48
2022/12/29 04:57:50;;;;;;;5.50;1.13;;;;;;;10.39;92.72;100028.66;5069764;28;20033;-52
2022/12/29 05:00:15;;;;;;;5.53;0.80;;;;;;;10.40;92.80;100026.94;5069326;28;20040;-50
2022/12/29 05:02:41;;;;;;;5.15;1.08;;;;;;;10.40;91.87;100029.50;5072764;28;20040;-53
2022/12/29 05:05:06;;;;;;;6.65;1.15;;;;;;;10.39;91.31;100035.50;5069875;28;20396;-53
2022/12/29 05:07:33;;;;;;;5.47;1.00;;;;;;;10.37;90.89;100022.59;5064764;28;20051;-53
2022/12/29 05:09:59;;;;;;;3.95;0.80;;;;;;;10.36;90.67;100028.59;5060696;28;20562;-50
2022/12/29 05:12:24;;;;;;;6.65;1.17;;;;;;;10.34;90.66;100039.69;5069061;28;20063;-53
2022/12/29 05:14:50;;;;;;;7.18;1.77;;;;;;;10.33;90.60;100033.69;5069402;28;20033;-53
2022/12/29 05:17:15;;;;;;;5.13;1.15;;;;;;;10.35;90.26;100051.69;5070641;28;20063;-50
2022/12/29 05:19:40;;;;;;;5.88;0.80;;;;;;;10.34;90.02;100050.84;5067523;28;20029;-51
2022/12/29 05:22:06;;;;;;;8.15;1.10;;;;;;;10.30;89.65;100061.03;5065492;28;20032;-52
2022/12/29 05:24:31;;;;;;;6.15;1.13;;;;;;;10.30;89.57;100067.03;5064140;28;20440;-52
2022/12/29 05:26:57;;;;;;;7.53;1.60;;;;;;;10.27;89.14;100058.44;5073072;28;20035;-53
2022/12/29 05:29:22;;;;;;;7.30;0.98;;;;;;;10.28;88.69;100065.28;5067478;28;20024;-53
2022/12/29 05:31:47;;;;;;;8.27;1.30;;;;;;;10.29;88.83;100069.59;5064236;28;20115;-48
2022/12/29 05:34:13;;;;;;;5.45;0.90;;;;;;;10.26;89.08;100062.69;5064767;28;20032;-45
2022/12/29 05:36:39;;;;;;;7.38;1.30;;;;;;;10.27;88.23;100081.56;5071908;28;20073;-52
2022/12/29 05:39:05;;;;;;;8.85;1.10;;;;;;;10.26;88.12;100069.53;5067932;28;20032;-48
2022/12/29 05:41:30;;;;;;;5.18;0.80;;;;;;;10.26;87.12;100069.53;5060241;28;20029;-47
2022/12/29 05:43:55;;;;;;;6.55;1.00;;;;;;;10.27;87.76;100068.72;5062454;28;20064;-52
2022/12/29 05:46:21;;;;;;;7.10;1.05;;;;;;;10.28;86.94;100080.72;5069117;28;20027;-51
2022/12/29 05:48:46;;;;;;;9.30;1.30;;;;;;;10.29;86.91;100077.28;5068204;28;20028;-50
2022/12/29 05:51:12;;;;;;;5.25;1.05;;;;;;;10.29;86.68;100073.00;5067260;28;20103;-52
2022/12/29 05:53:37;;;;;;;6.10;1.10;;;;;;;10.32;86.94;100087.63;5066593;28;20389;-50
2022/12/29 05:56:03;;;;;;;7.50;0.90;;;;;;;10.30;87.17;100095.28;5065432;28;20039;-52
2022/12/29 05:58:28;;;;;;;4.82;0.82;;;;;;;10.30;87.04;100092.72;5069720;28;20024;-52
2022/12/29 06:00:53;;;;;;;6.47;1.30;;;;;;;10.33;87.07;100085.09;5064714;28;20029;-50
2022/12/29 06:03:19;;;;;;;4.70;0.90;;;;;;;10.34;86.86;100086.81;5066713;28;20037;-53
2022/12/29 06:05:45;;;;;;;5.25;0.90;;;;;;;10.33;86.90;100073.94;5065864;28;20033;-52
2022/12/29 06:08:11;;;;;;;6.57;1.45;;;;;;;10.33;86.54;100091.94;5078437;28;20028;-53
2022/12/29 06:10:36;;;;;;;5.93;1.25;;;;;;;10.33;84.54;100094.50;5076362;28;20036;-51
2022/12/29 06:13:03;;;;;;;5.63;1.05;;;;;;;10.34;84.43;100088.50;5066503;28;20492;-52
2022/12/29 06:15:29;;;;;;;7.90;0.88;;;;;;;10.34;84.83;100081.66;5074713;28;20488;-53
2022/12/29 06:17:54;;;;;;;5.25;1.27;;;;;;;10.33;85.05;100090.22;5073072;28;20057;-53
2022/12/29 06:20:20;;;;;;;6.53;0.98;;;;;;;10.34;84.98;100076.53;5069145;28;20122;-55
2022/12/29 06:22:46;;;;;;;4.63;0.80;;;;;;;10.33;84.51;100076.50;5075247;28;20039;-52
2022/12/29 06:25:11;;;;;;;6.03;0.93;;;;;;;10.32;84.17;100077.34;5071538;28;20167;-53
2022/12/29 06:27:37;;;;;;;4.97;1.20;;;;;;;10.32;84.03;100083.34;5074725;28;20029;-51
2022/12/29 06:30:03;;;;;;;7.03;0.93;;;;;;;10.33;83.60;100076.50;5072950;28;20401;-47
2022/12/29 06:32:28;;;;;;;6.80;1.08;;;;;;;10.31;84.35;100079.03;5063417;28;20047;-52
2022/12/29 06:34:53;;;;;;;4.88;0.80;;;;;;;10.33;83.75;100079.09;5073771;28;20481;-52
2022/12/29 06:37:19;;;;;;;5.10;0.80;;;;;;;10.32;83.85;100072.22;5072974;28;20083;-52
2022/12/29 06:39:44;;;;;;;6.45;0.90;;;;;;;10.32;83.01;100074.78;5066575;28;20065;-53
2022/12/29 06:42:09;;;;;;;6.57;1.10;;;;;;;10.32;83.29;100078.22;5068104;28;20074;-52
2022/12/29 06:44:35;;;;;;;5.50;1.00;;;;;;;10.31;83.55;100078.16;5064671;28;20033;-52
2022/12/29 06:47:00;;;;;;;5.22;0.90;;;;;;;10.30;83.80;100084.16;5059339;28;20035;-49
2022/12/29 06:49:25;;;;;;;5.43;1.00;;;;;;;10.31;83.78;100080.75;5072945;28;20480;-53
2022/12/29 06:51:51;;;;;;;6.70;1.00;;;;;;;10.30;83.61;100073.88;5071776;28;20036;-49
2022/12/29 06:54:16;;;;;;;9.70;1.50;;;;;;;10.31;84.20;100083.31;5069936;28;20103;-53
2022/12/29 06:56:42;;;;;;;6.15;1.35;;;;;;;10.29;83.76;100080.72;5072550;28;20089;-51
2022/12/29 06:59:08;;;;;;;8.23;1.08;;;;;;;10.29;84.04;100082.44;5067303;28;20025;-52
2022/12/29 07:01:35;;;;;;;5.85;1.00;;;;;;;10.30;83.61;100089.28;5069297;28;20077;-53
2022/12/29 07:04:01;;;;;;;4.20;0.90;;;;;;;10.30;83.46;100076.44;5066823;28;20426;-53
2022/12/29 07:06:27;;;;;;;6.10;1.00;;;;;;;10.32;83.55;100087.63;5069672;28;20110;-52
2022/12/29 07:08:54;;;;;;;8.30;1.65;;;;;;;10.32;83.12;100083.34;5069988;28;20449;-53
2022/12/29 07:11:21;;;;;;;7.15;1.20;;;;;;;10.33;83.36;100081.66;5064505;28;20044;-51
2022/12/29 07:13:46;;;;;;;6.78;1.00;;;;;;;10.34;83.71;100097.09;5068148;28;20032;-52
2022/12/29 07:16:11;;;;;;;7.15;1.40;;;;;;;10.34;83.43;100097.09;5066237;28;20035;-53
2022/12/29 07:18:37;;;;;;;6.18;1.00;;;;;;;10.34;83.26;100109.06;5061041;28;20075;-53
2022/12/29 07:21:02;;;;;;;9.27;1.10;;;;;;;10.34;82.91;100101.38;5065238;28;20040;-52
2022/12/29 07:23:28;;;;;;;8.32;1.20;;;;;;;10.36;82.65;100125.38;5064851;28;20024;-52
2022/12/29 07:26:05;;;;;;;7.25;1.30;;;;;;;10.36;82.76;100122.81;5067749;28;20044;-50
2022/12/29 07:28:32;;;;;;;7.25;1.10;;;;;;;10.33;81.91;100130.47;5066976;28;20021;-52
2022/12/29 07:30:57;;;;;;;6.05;1.20;;;;;;;10.35;81.92;100127.09;5067022;28;20595;-48
2022/12/29 07:33:23;;;;;;;8.52;1.02;;;;;;;10.33;81.53;100120.19;5064539;28;20115;-49
2022/12/29 07:35:48;;;;;;;8.15;1.08;;;;;;;10.32;81.18;100142.47;5067691;28;20043;-52
2022/12/29 07:38:14;;;;;;;10.35;1.50;;;;;;;10.32;80.87;100137.31;5071816;28;20048;-53
2022/12/29 07:40:40;;;;;;;6.40;1.40;;;;;;;10.30;80.51;100135.53;5066890;28;20032;-50
2022/12/29 07:43:05;;;;;;;10.70;1.58;;;;;;;10.30;80.19;100145.81;5075397;28;20036;-52
2022/12/29 07:45:30;;;;;;;9.93;1.80;;;;;;;10.29;79.13;100144.09;5065593;28;20031;-53
2022/12/29 07:47:56;;;;;;;6.57;1.40;;;;;;;10.27;79.42;100138.09;5076273;28;20092;-53
2022/12/29 07:50:21;;;;;;;10.23;1.58;;;;;;;10.29;79.57;100146.66;5068615;28;20377;-52
2022/12/29 07:52:47;;;;;;;8.95;1.38;;;;;;;10.28;79.76;100153.50;5079033;28;20052;-52
2022/12/29 07:55:13;;;;;;;7.40;1.38;;;;;;;10.27;79.66;100158.63;5069550;28;20032;-52
2022/12/29 07:57:39;;;;;;;8.70;1.30;;;;;;;10.28;79.70;100156.09;5074143;28;20250;-51
2022/12/29 08:00:05;;;;;;;10.40;1.50;;;;;;;10.28;79.56;100150.09;5068021;28;20032;-48
2022/12/29 08:02:30;;;;;;;8.45;1.35;;;;;;;10.28;79.57;100150.09;5066045;28;20056;-52
2022/12/29 08:04:55;;;;;;;7.13;1.50;;;;;;;10.29;80.09;100156.94;5063665;28;20040;-52
2022/12/29 08:07:21;;;;;;;10.50;1.70;;;;;;;10.29;79.66;100159.50;5063545;28;20499;-52
2022/12/29 08:09:46;;;;;;;8.63;1.58;;;;;;;10.32;80.43;100163.03;5061824;28;20495;-50
2022/12/29 08:12:12;;;;;;;10.23;1.60;;;;;;;10.30;81.31;100164.69;5059156;28;20153;-53
2022/12/29 08:14:37;;;;;;;12.07;1.90;;;;;;;10.28;81.49;100168.94;5060493;28;20040;-51
2022/12/29 08:17:02;;;;;;;12.25;1.92;;;;;;;10.29;81.23;100169.78;5060705;28;20037;-48
2022/12/29 08:19:28;;;;;;;9.63;1.70;;;;;;;10.30;81.28;100171.53;5066136;28;20112;-52
2022/12/29 08:21:53;;;;;;;7.00;1.58;;;;;;;10.29;80.92;100167.22;5068789;28;20044;-47
2022/12/29 08:24:19;;;;;;;8.50;1.65;;;;;;;10.30;81.12;100163.81;5063711;28;20128;-52
2022/12/29 08:26:44;;;;;;;12.80;2.90;;;;;;;10.30;80.72;100167.25;5067600;28;20424;-50
2022/12/29 08:29:09;;;;;;;11.40;2.05;;;;;;;10.33;80.46;100158.75;5073833;28;20504;-51
2022/12/29 08:31:35;;;;;;;8.40;1.80;;;;;;;10.34;79.82;100170.75;5073703;28;20472;-51
2022/12/29 08:34:03;;;;;;;12.65;1.95;;;;;;;10.35;79.92;100164.75;5065557;28;20036;-52
2022/12/29 08:36:28;;;;;;;9.02;1.80;;;;;;;10.36;79.10;100161.34;5070239;28;20374;-48
2022/12/29 08:38:54;;;;;;;6.55;1.45;;;;;;;10.36;79.50;100161.34;5069642;28;20024;-52
2022/12/29 08:41:19;;;;;;;12.90;1.88;;;;;;;10.38;79.18;100158.00;5066614;28;20032;-51
2022/12/29 08:43:48;;;;;;;12.30;1.55;;;;;;;10.42;77.99;100164.91;5067151;28;20071;-52
2022/12/29 08:46:14;;;;;;;10.77;1.63;;;;;;;10.43;77.34;100158.03;5061427;28;20047;-52
2022/12/29 08:48:40;;;;;;;12.25;1.83;;;;;;;10.44;77.59;100154.66;5070025;28;20032;-51
2022/12/29 08:51:05;;;;;;;15.18;1.70;;;;;;;10.46;77.35;100163.25;5067962;28;20074;-52
2022/12/29 08:53:30;;;;;;;8.45;1.73;;;;;;;10.47;77.26;100160.69;5066695;28;20086;-50
2022/12/29 08:55:58;;;;;;;9.48;1.70;;;;;;;10.50;77.27;100159.91;5064402;28;20041;-53
2022/12/29 08:58:25;;;;;;;8.65;1.33;;;;;;;10.49;77.09;100168.44;5068767;28;20512;-50
2022/12/29 09:00:55;;;;;;;8.52;1.45;;;;;;;10.50;76.48;100171.91;5067523;28;20035;-52
2022/12/29 09:03:22;;;;;;;10.88;1.58;;;;;;;10.50;77.62;100174.47;5065482;28;20487;-53
2022/12/29 09:05:49;;;;;;;13.10;1.95;;;;;;;10.49;77.64;100168.44;5059801;28;20643;-50
2022/12/29 09:08:14;;;;;;;9.43;1.40;;;;;;;10.47;77.90;100170.13;5067832;28;20175;-44
2022/12/29 09:10:40;;;;;;;11.20;1.75;;;;;;;10.46;77.53;100173.53;5067523;28;20039;-44
2022/12/29 09:13:05;;;;;;;9.80;1.83;;;;;;;10.47;77.83;100167.56;5065196;28;20037;-50
2022/12/29 09:15:30;;;;;;;11.25;1.70;;;;;;;10.48;77.93;100169.28;5067511;28;20044;-46
2022/12/29 09:17:56;;;;;;;10.25;1.65;;;;;;;10.50;78.04;100190.75;5066407;28;20067;-45
2022/12/29 09:20:21;;;;;;;11.25;1.85;;;;;;;10.51;78.01;100191.63;5069147;28;20071;-44
2022/12/29 09:22:47;;;;;;;11.57;1.40;;;;;;;10.53;78.75;100190.78;5068590;28;20109;-46
2022/12/29 09:25:13;;;;;;;8.32;1.40;;;;;;;10.55;78.50;100183.09;5069376;28;20049;-47
2022/12/29 09:27:38;;;;;;;12.68;1.77;;;;;;;10.54;78.94;100189.94;5063706;28;20088;-49
2022/12/29 09:30:06;;;;;;;12.07;2.00;;;;;;;10.54;79.94;100199.38;5071060;28;20036;-47
2022/12/29 09:32:32;;;;;;;10.88;1.75;;;;;;;10.51;81.12;100196.75;5078537;28;20032;-49
2022/12/29 09:34:58;;;;;;;8.57;1.50;;;;;;;10.48;81.36;100203.56;5080784;28;20107;-47
2022/12/29 09:37:23;;;;;;;10.25;1.50;;;;;;;10.50;81.91;100207.88;5076170;28;21118;-47
2022/12/29 09:39:49;;;;;;;9.35;1.63;;;;;;;10.45;81.53;100220.66;5076372;28;20035;-47
2022/12/29 09:42:22;;;;;;;9.57;1.25;;;;;;;10.45;81.64;100228.34;5075203;28;20502;-48
2022/12/29 09:45:14;;;;;;;7.18;1.13;;;;;;;10.47;82.46;100221.53;5069181;28;20025;-46
2022/12/29 09:47:42;;;;;;;8.63;2.05;;;;;;;10.43;83.54;100230.00;5072295;28;20027;-47
2022/12/29 09:50:28;;;;;;;8.65;1.40;;;;;;;10.42;84.04;100239.44;5069576;28;20020;-45
2022/12/29 09:53:11;;;;;;;10.38;1.60;;;;;;;10.42;84.67;100246.28;5071889;28;20481;-47
2022/12/29 09:55:41;;;;;;;9.10;1.50;;;;;;;10.39;85.08;100243.66;5071307;28;20029;-48
2022/12/29 09:58:11;;;;;;;6.85;1.40;;;;;;;10.37;85.49;100245.31;5063876;28;20493;-47
2022/12/29 10:00:52;;;;;;;9.75;1.40;;;;;;;10.39;85.57;100241.09;5076037;28;20469;-47
2022/12/29 10:03:20;;;;;;;8.15;1.98;;;;;;;10.36;86.11;100254.72;5075385;28;20025;-48
2022/12/29 10:06:08;;;;;;;7.60;1.48;;;;;;;10.35;86.32;100280.41;5078883;28;20036;-48
2022/12/29 10:08:49;;;;;;;11.98;1.65;;;;;;;10.33;86.83;100285.53;5079668;28;20036;-49
2022/12/29 10:11:27;;;;;;;10.73;1.30;;;;;;;10.29;87.29;100281.16;5086427;28;20028;-48
2022/12/29 10:14:26;;;;;;;7.55;1.55;;;;;;;10.30;87.45;100297.44;5069958;28;20031;-47
2022/12/29 10:17:10;;;;;;;11.82;1.83;;;;;;;10.24;87.65;100290.47;5072991;28;20031;-46
2022/12/29 10:19:44;;;;;;;7.57;1.60;;;;;;;10.20;89.03;100294.66;5075458;28;20032;-48
2022/12/29 10:22:13;;;;;;;9.05;1.60;;;;;;;10.21;89.01;100305.81;5073747;28;20040;-50
2022/12/29 10:24:39;;;;;;;6.03;1.30;;;;;;;10.15;88.79;100306.53;5067076;28;20037;-46
2022/12/29 10:27:11;;;;;;;10.07;1.50;;;;;;;10.16;88.81;100327.97;5077480;28;20032;-46
2022/12/29 10:29:45;;;;;;;10.05;1.73;;;;;;;10.11;89.76;100316.72;5068095;28;20377;-54
2022/12/29 10:32:32;;;;;;;7.93;1.60;;;;;;;10.16;90.17;100323.69;5076273;28;20066;-48
2022/12/29 10:35:11;;;;;;;7.20;1.42;;;;;;;10.15;90.52;100337.38;5070327;28;20503;-47
2022/12/29 10:38:02;;;;;;;9.45;1.70;;;;;;;10.12;90.97;100332.16;5073967;28;20035;-47
2022/12/29 10:40:42;;;;;;;7.93;1.30;;;;;;;10.11;91.13;100335.56;5066262;28;20055;-48
2022/12/29 10:43:29;;;;;;;9.93;1.48;;;;;;;10.15;90.92;100334.81;5080291;28;20073;-47
2022/12/29 10:45:59;;;;;;;10.65;1.95;;;;;;;10.12;90.88;100349.28;5078250;28;20020;-45
2022/12/29 10:48:32;;;;;;;11.05;1.75;;;;;;;10.12;90.97;100357.84;5073309;28;20070;-46
2022/12/29 10:51:01;;;;;;;7.88;1.80;;;;;;;10.09;90.97;100346.66;5070054;28;20056;-47
2022/12/29 10:53:52;;;;;;;10.10;1.92;;;;;;;10.13;91.83;100357.03;5070905;28;20024;-48
2022/12/29 10:56:36;;;;;;;9.95;2.22;;;;;;;10.13;91.20;100358.72;5061967;28;20028;-47
2022/12/29 10:59:14;;;;;;;8.98;2.03;;;;;;;10.11;91.53;100366.38;5066074;28;20375;-47
2022/12/29 11:01:51;;;;;;;7.00;1.58;;;;;;;10.15;91.09;100363.06;5071693;28;20017;-46
2022/12/29 11:04:35;;;;;;;8.20;1.88;;;;;;;10.15;91.31;100378.47;5072916;28;20031;-46
2022/12/29 11:07:01;;;;;;;12.38;2.50;;;;;;;10.11;91.43;100374.09;5075709;28;20034;-47
2022/12/29 11:09:34;;;;;;;12.57;3.80;;;;;;;10.15;91.23;100382.75;5079995;28;20042;-47
2022/12/29 11:12:00;;;;;;;12.60;2.58;;;;;;;10.13;90.64;100380.16;5076912;28;20024;-47
2022/12/29 11:14:30;;;;;;;10.32;1.98;;;;;;;10.18;90.38;100385.38;5077405;28;20468;-46
2022/12/29 11:17:01;;;;;;;9.90;1.58;;;;;;;10.18;90.02;100378.53;5077343;28;20028;-44
2022/12/29 11:19:30;;;;;;;8.73;2.28;;;;;;;10.21;89.96;100386.31;5073881;28;20470;-48
2022/12/29 11:22:13;;;;;;;8.95;2.00;;;;;;;10.27;89.94;100372.78;5070172;28;20103;-47
2022/12/29 11:24:45;;;;;;;10.80;2.17;;;;;;;10.30;90.04;100398.53;5065147;28;20576;-45
2022/12/29 11:27:16;;;;;;;11.63;2.40;;;;;;;10.31;89.81;100402.81;5071988;28;20029;-45
2022/12/29 11:29:42;;;;;;;10.55;2.05;;;;;;;10.30;89.05;100403.66;5063402;28;20013;-46
2022/12/29 11:32:17;;;;;;;10.82;1.85;;;;;;;10.31;88.67;100399.38;5075909;28;20031;-47
2022/12/29 11:34:42;;;;;;;11.18;2.42;;;;;;;10.29;89.19;100403.63;5072232;28;20028;-47
2022/12/29 11:37:12;;;;;;;11.60;2.30;;;;;;;10.31;88.88;100407.09;5075957;28;20066;-45
2022/12/29 11:39:45;;;;;;;12.60;2.22;;;;;;;10.33;88.75;100419.16;5081272;28;20027;-45
2022/12/29 11:42:17;;;;;;;12.43;2.25;;;;;;;10.34;88.46;100414.88;5077155;28;20113;-48
2022/12/29 11:44:45;;;;;;;15.02;2.30;;;;;;;10.41;88.53;100407.34;5077620;28;20103;-48
2022/12/29 11:47:21;;;;;;;11.93;2.40;;;;;;;10.43;87.86;100420.22;5075503;28;20024;-48
2022/12/29 11:49:53;;;;;;;15.23;2.30;;;;;;;10.45;87.29;100413.41;5077233;28;20017;-49
2022/12/29 11:52:32;;;;;;;12.80;2.13;;;;;;;10.44;86.67;100422.84;5070880;28;20024;-46
2022/12/29 11:55:00;;;;;;;13.45;2.17;;;;;;;10.43;87.21;100428.81;5073130;28;20447;-46
2022/12/29 11:57:27;;;;;;;11.15;2.10;;;;;;;10.42;86.80;100431.34;5064486;28;20033;-46
2022/12/29 11:59:55;;;;;;;12.68;2.25;;;;;;;10.44;86.85;100432.25;5070692;28;20089;-43
2022/12/29 12:02:20;;;;;;;12.55;2.08;;;;;;;10.46;86.65;100441.72;5070294;28;20491;-45
2022/12/29 12:04:48;;;;;;;15.77;2.25;;;;;;;10.48;86.57;100434.91;5073615;28;20027;-47
2022/12/29 12:07:39;;;;;;;14.38;2.00;;;;;;;10.57;87.06;100429.09;5074340;28;20040;-46